Time;durP1;ratioP1;P1;durP2;ratioP2;P2;SDS_P1;SDS_P2;PMS_P1;PMS_P2;Temp;Humidity;BMP_temperature;BMP_pressure;BME280_temperature;BME280_humidity;BME280_pressure;Samples;Min_cycle;Max_cycle;Signal;HPM_P1;HPM_P2
2021/12/04 00:00:13;;;;;;;49.97;33.67;;;;;;;12.96;73.54;101793.31;4975901;28;20094;-70
2021/12/04 00:02:40;;;;;;;48.75;32.13;;;;;;;12.90;73.85;101795.97;4974596;28;20030;-70
2021/12/04 00:05:07;;;;;;;;;;;;;;;12.83;74.17;101803.09;4988102;28;20062;-70
2021/12/04 00:07:36;;;;;;;50.97;32.27;;;;;;;12.92;74.09;101800.38;4976173;28;19914;-69
2021/12/04 00:10:04;;;;;;;49.30;33.88;;;;;;;12.96;73.81;101788.88;4975488;28;20026;-70
2021/12/04 00:12:32;;;;;;;45.15;30.65;;;;;;;12.97;73.21;101798.59;4973328;28;20085;-68
2021/12/04 00:15:00;;;;;;;48.85;32.03;;;;;;;12.95;73.64;101787.09;4974521;28;20051;-70
2021/12/04 00:17:27;;;;;;;51.72;33.17;;;;;;;12.80;73.75;101796.03;4975901;28;20426;-74
2021/12/04 00:19:54;;;;;;;51.60;32.05;;;;;;;12.68;74.25;101799.63;4976449;28;20037;-74
2021/12/04 00:22:20;;;;;;;51.53;31.48;;;;;;;12.65;74.52;101797.00;4976515;28;20039;-75
2021/12/04 00:24:47;;;;;;;51.83;31.52;;;;;;;12.66;74.35;101793.44;4978294;28;20049;-74
2021/12/04 00:27:13;;;;;;;47.15;30.92;;;;;;;12.63;74.58;101790.81;4971014;28;20030;-75
2021/12/04 00:29:39;;;;;;;45.35;28.83;;;;;;;12.63;74.51;101790.81;4974972;28;20097;-75
2021/12/04 00:32:42;;;;;;;43.08;28.63;;;;;;;12.56;74.67;101793.47;4983829;28;20030;-74
2021/12/04 00:35:22;;;;;;;47.50;30.38;;;;;;;12.46;75.15;101792.66;4970868;28;20468;-75
2021/12/04 00:43:14;;;;;;;50.03;32.95;;;;;;;12.42;75.18;101788.25;4962341;28;20078;-75
2021/12/04 00:49:10;;;;;;;42.88;29.60;;;;;;;12.29;75.83;101785.63;4974395;28;20046;-71
2021/12/04 00:51:43;;;;;;;44.08;27.75;;;;;;;12.38;75.59;101789.16;4973877;28;20045;-75
2021/12/04 00:54:10;;;;;;;45.63;29.02;;;;;;;12.34;75.06;101797.09;4979141;28;20029;-71
2021/12/04 00:56:39;;;;;;;43.45;27.30;;;;;;;12.35;75.24;101790.91;4972047;28;20031;-70
2021/12/04 00:59:06;;;;;;;39.13;26.63;;;;;;;12.37;75.19;101792.69;4983761;28;20022;-70
2021/12/04 01:01:32;;;;;;;43.10;27.17;;;;;;;12.37;75.45;101803.28;4971365;28;20039;-71
2021/12/04 01:03:58;;;;;;;44.45;29.40;;;;;;;12.37;75.39;101797.97;4990351;28;20030;-70
2021/12/04 01:06:25;;;;;;;42.47;26.42;;;;;;;12.30;75.26;101808.59;4971960;28;20064;-69
2021/12/04 01:08:51;;;;;;;40.80;26.30;;;;;;;12.28;75.66;101813.03;5002371;28;20034;-71
2021/12/04 01:11:17;;;;;;;44.35;28.52;;;;;;;12.32;75.62;101811.22;4974847;28;20027;-70
2021/12/04 01:13:44;;;;;;;43.83;27.75;;;;;;;12.37;75.46;101814.75;4979484;28;20037;-71
2021/12/04 01:16:11;;;;;;;41.38;28.13;;;;;;;12.33;75.64;101813.91;4973002;28;20475;-69
2021/12/04 01:18:38;;;;;;;44.35;27.63;;;;;;;12.30;75.78;101808.59;4972987;28;20118;-70
2021/12/04 01:21:04;;;;;;;40.00;25.88;;;;;;;12.35;75.89;101806.81;4973781;28;20441;-69
2021/12/04 01:23:31;;;;;;;41.20;28.85;;;;;;;12.40;75.39;101811.22;4972005;28;20053;-70
2021/12/04 01:25:57;;;;;;;46.95;28.90;;;;;;;12.42;75.76;101801.50;4992599;28;20047;-70
2021/12/04 01:28:23;;;;;;;40.72;27.80;;;;;;;12.37;75.50;101806.81;4974282;28;20153;-70
2021/12/04 01:30:50;;;;;;;39.58;28.85;;;;;;;12.32;75.96;101809.47;4987380;28;20294;-68
2021/12/04 01:33:16;;;;;;;45.58;31.05;;;;;;;12.31;76.07;101807.72;4975676;28;20030;-74
2021/12/04 01:35:42;;;;;;;44.00;30.48;;;;;;;12.36;76.64;101813.00;4982128;28;20034;-73
2021/12/04 01:38:10;;;;;;;51.47;32.80;;;;;;;12.37;76.07;101814.75;4993120;28;20030;-73
2021/12/04 01:40:36;;;;;;;58.17;35.63;;;;;;;12.07;76.44;101815.72;4977873;28;20034;-73
2021/12/04 01:43:02;;;;;;;;;;;;;;;12.05;76.44;101812.19;4977457;28;20109;-74
2021/12/04 01:45:28;;;;;;;48.83;32.67;;;;;;;12.06;76.60;101809.53;4976472;28;20288;-74
2021/12/04 01:48:02;;;;;;;50.42;33.17;;;;;;;12.06;76.84;101809.53;4976220;28;20453;-73
2021/12/04 01:50:30;;;;;;;54.53;34.50;;;;;;;12.12;76.82;101811.28;4974607;28;20357;-74
2021/12/04 01:52:58;;;;;;;49.90;32.13;;;;;;;12.16;76.57;101805.09;4985843;28;20444;-73
2021/12/04 01:55:30;;;;;;;53.90;32.15;;;;;;;12.17;76.42;101810.41;4977022;28;20350;-74
2021/12/04 01:57:57;;;;;;;46.08;30.58;;;;;;;12.17;76.51;101817.47;4976918;28;20116;-75
2021/12/04 02:00:24;;;;;;;46.75;30.45;;;;;;;12.20;76.57;101821.88;4975843;28;20046;-73
2021/12/04 02:02:50;;;;;;;45.20;29.70;;;;;;;12.18;76.68;101821.88;4976787;28;20050;-73
2021/12/04 02:05:16;;;;;;;48.75;32.35;;;;;;;12.23;76.34;101816.56;4980864;28;20404;-74
2021/12/04 02:07:42;;;;;;;42.78;30.13;;;;;;;12.25;76.63;101818.31;4977510;28;20027;-73
2021/12/04 02:10:09;;;;;;;46.10;30.50;;;;;;;12.27;76.93;101818.34;4974871;28;20035;-73
2021/12/04 02:12:36;;;;;;;44.22;30.50;;;;;;;12.26;76.88;101824.53;4976028;28;20118;-73
2021/12/04 02:15:03;;;;;;;47.60;29.60;;;;;;;12.28;76.76;101830.69;4976457;28;20078;-73
2021/12/04 02:17:29;;;;;;;42.80;28.52;;;;;;;12.26;76.92;101829.81;4980261;28;20088;-73
2021/12/04 02:19:55;;;;;;;23.85;15.27;;;;;;;12.18;77.07;101824.53;4979151;28;20030;-74
2021/12/04 02:22:22;;;;;;;21.25;12.02;;;;;;;12.16;77.70;101831.59;4974520;28;20125;-73
2021/12/04 02:24:48;;;;;;;22.08;11.38;;;;;;;12.14;77.32;101826.28;4977697;28;20038;-73
2021/12/04 02:27:14;;;;;;;17.42;10.88;;;;;;;12.12;77.37;101825.44;4975543;28;20134;-73
2021/12/04 02:29:50;;;;;;;19.95;9.63;;;;;;;12.11;77.19;101826.31;4977978;28;20023;-73
2021/12/04 02:32:20;;;;;;;14.95;8.70;;;;;;;12.07;77.13;101824.56;4973630;28;20039;-73
2021/12/04 02:34:46;;;;;;;16.05;7.53;;;;;;;12.07;77.54;101834.25;4975264;28;20109;-73
2021/12/04 02:37:13;;;;;;;21.95;8.05;;;;;;;12.06;76.92;101835.16;4973153;28;20034;-73
2021/12/04 02:39:44;;;;;;;14.10;7.30;;;;;;;12.07;77.58;101837.78;4981080;28;20031;-68
2021/12/04 02:42:23;;;;;;;12.75;7.30;;;;;;;12.06;77.22;101837.81;4974569;28;20345;-73
2021/12/04 02:44:50;;;;;;;14.45;8.15;;;;;;;12.06;77.14;101840.44;4987773;28;20088;-66
2021/12/04 02:47:17;;;;;;;10.93;6.72;;;;;;;12.05;77.11;101846.63;4980695;28;20145;-67
2021/12/04 02:49:44;;;;;;;16.30;7.03;;;;;;;12.05;77.59;101843.97;4978287;28;20022;-68
2021/12/04 02:52:10;;;;;;;;;;;;;;;12.05;77.42;101855.44;4983674;28;20035;-72
2021/12/04 02:54:37;;;;;;;17.75;11.35;;;;;;;12.04;76.99;101853.66;4977192;28;19992;-72
2021/12/04 02:57:06;;;;;;;21.38;13.15;;;;;;;12.00;77.30;101865.16;4976888;28;20045;-67
2021/12/04 02:59:34;;;;;;;16.48;10.20;;;;;;;11.99;77.34;101871.34;4979320;28;20038;-71
2021/12/04 03:02:00;;;;;;;13.30;8.07;;;;;;;11.94;77.61;101868.66;4983600;28;20035;-72
2021/12/04 03:04:28;;;;;;;19.20;9.70;;;;;;;11.92;78.20;101878.34;4978964;28;20122;-73
2021/12/04 03:06:54;;;;;;;21.40;11.55;;;;;;;11.93;78.00;101882.78;4981948;28;20042;-70
2021/12/04 03:09:21;;;;;;;22.35;12.57;;;;;;;11.93;77.95;101888.06;4977888;28;20641;-71
2021/12/04 03:11:47;;;;;;;;;;;;;;;11.92;77.87;101886.31;4983202;28;20057;-72
2021/12/04 03:14:13;;;;;;;20.08;9.63;;;;;;;11.89;78.39;101886.31;4975392;28;19922;-70
2021/12/04 03:16:42;;;;;;;14.23;8.52;;;;;;;11.81;78.86;101881.00;4976287;28;20524;-68
2021/12/04 03:19:08;;;;;;;16.00;7.38;;;;;;;11.79;78.84;101885.44;4979460;28;20042;-75
2021/12/04 03:21:36;;;;;;;14.80;6.82;;;;;;;11.80;78.96;101888.97;4986272;28;20026;-71
2021/12/04 03:24:12;;;;;;;19.80;6.15;;;;;;;11.82;78.32;101895.16;4982542;28;20066;-71
2021/12/04 03:26:39;;;;;;;12.43;6.05;;;;;;;11.78;78.64;101893.38;4985204;28;20026;-70
2021/12/04 03:29:09;;;;;;;;;;;;;;;11.76;78.49;101909.25;4983719;28;20023;-70
2021/12/04 03:32:11;;;;;;;12.98;5.90;;;;;;;11.73;79.29;101909.25;4984155;28;20336;-71
2021/12/04 03:40:10;;;;;;;12.73;6.93;;;;;;;11.73;79.04;101922.50;4976694;28;20037;-72
2021/12/04 03:42:40;;;;;;;13.48;7.30;;;;;;;11.72;79.00;101918.06;4973293;28;20024;-72
2021/12/04 03:45:09;;;;;;;11.63;6.10;;;;;;;11.72;78.68;101914.56;4980350;28;20035;-72
2021/12/04 03:47:39;;;;;;;12.48;6.20;;;;;;;11.70;79.08;101919.84;4976294;28;20058;-71
2021/12/04 03:50:07;;;;;;;12.90;6.22;;;;;;;11.66;79.28;101915.44;4985011;28;20023;-71
2021/12/04 03:52:33;;;;;;;10.05;5.30;;;;;;;11.68;78.97;101911.91;4995800;28;20101;-71
2021/12/04 03:54:59;;;;;;;15.35;5.90;;;;;;;11.67;79.09;101917.19;4980500;28;20026;-71
2021/12/04 03:57:25;;;;;;;16.75;6.35;;;;;;;11.69;79.20;101924.25;4982050;28;20023;-71
2021/12/04 03:59:51;;;;;;;15.25;5.60;;;;;;;11.75;79.40;101925.13;4989673;28;20034;-71
2021/12/04 04:02:18;;;;;;;13.23;6.32;;;;;;;11.73;79.87;101926.91;4981102;28;20540;-71
2021/12/04 04:04:45;;;;;;;13.05;6.28;;;;;;;11.74;79.38;101928.69;4985119;28;20026;-72
2021/12/04 04:07:10;;;;;;;;;;;;;;;11.63;79.86;101932.19;4992647;28;20031;-71
2021/12/04 04:09:37;;;;;;;17.85;5.70;;;;;;;11.60;79.47;101937.47;4983663;28;20467;-72
2021/12/04 04:12:03;;;;;;;14.00;5.53;;;;;;;11.62;79.52;101941.00;4989213;28;20026;-71
2021/12/04 04:14:29;;;;;;;;;;;;;;;11.63;79.56;101941.88;4986168;28;20041;-72
2021/12/04 04:16:57;;;;;;;15.73;6.88;;;;;;;11.61;80.17;101941.00;4982436;28;19973;-73
2021/12/04 04:19:25;;;;;;;11.73;6.30;;;;;;;11.59;80.01;101948.03;4984220;28;20112;-72
2021/12/04 04:21:58;;;;;;;17.35;7.15;;;;;;;11.62;79.14;101945.44;4997290;28;20379;-72
2021/12/04 04:24:29;;;;;;;14.90;5.97;;;;;;;11.61;79.64;101949.81;4977161;28;20073;-73
2021/12/04 04:26:55;;;;;;;14.05;5.80;;;;;;;11.60;79.10;101947.19;4980480;28;20076;-73
2021/12/04 04:29:22;;;;;;;13.68;5.88;;;;;;;11.61;79.50;101944.53;4992388;28;20084;-73
2021/12/04 04:31:49;;;;;;;13.20;6.82;;;;;;;11.62;79.14;101945.44;5012546;28;20068;-73
2021/12/04 04:34:23;;;;;;;12.93;6.13;;;;;;;11.61;79.68;101946.31;4986242;28;20092;-76
2021/12/04 04:58:53;;;;;;;15.23;5.60;;;;;;;11.56;78.90;101954.22;4975630;28;20377;-77
2021/12/04 05:14:40;;;;;;;13.57;5.60;;;;;;;11.59;78.96;101972.78;4977203;28;20158;-72
2021/12/04 05:17:28;;;;;;;12.68;5.53;;;;;;;11.60;79.03;101971.00;4976391;28;20380;-72
2021/12/04 05:19:55;;;;;;;17.88;5.53;;;;;;;11.55;78.96;101976.28;4972838;28;20109;-72
2021/12/04 05:22:22;;;;;;;13.60;6.32;;;;;;;11.51;78.89;101978.03;4976401;28;20372;-72
2021/12/04 05:24:49;;;;;;;12.35;5.68;;;;;;;11.52;79.74;101978.91;4984639;28;20040;-72
2021/12/04 05:27:17;;;;;;;13.55;5.53;;;;;;;11.58;79.03;101985.97;4988278;28;20022;-71
2021/12/04 05:29:43;;;;;;;13.15;5.72;;;;;;;11.50;79.33;101980.69;4989736;28;20030;-71
2021/12/04 05:32:10;;;;;;;13.30;5.53;;;;;;;11.51;78.85;101985.06;4973741;28;20047;-72
2021/12/04 05:34:37;;;;;;;9.50;5.82;;;;;;;11.51;79.76;101985.06;4975245;28;20457;-72
2021/12/04 05:37:03;;;;;;;13.40;6.50;;;;;;;11.49;79.40;101986.84;5002174;28;20433;-72
2021/12/04 05:39:29;;;;;;;9.93;5.97;;;;;;;11.50;79.09;101993.91;4975600;28;20031;-72
2021/12/04 05:41:56;;;;;;;15.93;6.15;;;;;;;11.51;78.85;101990.38;4971915;28;20031;-72
2021/12/04 05:44:25;;;;;;;13.48;5.50;;;;;;;11.51;79.01;101990.38;4977074;28;20042;-73
2021/12/04 05:47:01;;;;;;;13.13;5.72;;;;;;;11.48;79.19;101995.66;4977323;28;20030;-74
2021/12/04 05:49:37;;;;;;;9.48;5.15;;;;;;;11.46;78.84;101993.00;4963798;28;20054;-73
2021/12/04 05:52:12;;;;;;;17.43;5.67;;;;;;;11.48;79.66;101993.00;4982383;28;20110;-77
2021/12/04 05:57:11;;;;;;;9.52;5.40;;;;;;;11.39;79.45;101991.19;4981515;28;20037;-74
2021/12/04 05:59:38;;;;;;;11.88;5.97;;;;;;;11.38;79.14;101988.56;4965042;28;20038;-74
2021/12/04 06:02:04;;;;;;;9.70;5.07;;;;;;;11.37;79.19;101990.34;4976458;28;20081;-72
2021/12/04 06:04:31;;;;;;;11.20;6.40;;;;;;;11.37;78.80;101997.41;4996960;28;20103;-72
2021/12/04 06:06:57;;;;;;;9.70;5.95;;;;;;;11.35;79.10;101992.97;4965556;28;20031;-72
2021/12/04 06:09:24;;;;;;;10.55;5.72;;;;;;;11.34;79.17;101993.84;4976361;28;20061;-72
2021/12/04 06:11:51;;;;;;;12.52;5.15;;;;;;;11.38;79.43;101991.19;4983357;28;20034;-72
2021/12/04 06:14:17;;;;;;;10.95;5.82;;;;;;;11.39;79.36;101980.63;4995427;28;20035;-76
2021/12/04 06:16:43;;;;;;;11.10;5.03;;;;;;;11.39;78.67;101991.19;4998709;28;20466;-76
2021/12/04 06:19:12;;;;;;;8.75;4.85;;;;;;;11.38;78.79;101991.19;4997400;28;20027;-73
2021/12/04 06:24:24;;;;;;;10.48;5.78;;;;;;;11.34;79.04;101983.25;4976436;28;20511;-71
2021/12/04 06:26:50;;;;;;;12.40;6.28;;;;;;;11.34;78.96;101977.97;4970361;28;20036;-73
2021/12/04 06:29:17;;;;;;;9.68;5.05;;;;;;;11.31;78.79;101980.63;5008071;28;20088;-72
2021/12/04 06:31:43;;;;;;;11.88;5.90;;;;;;;11.28;79.21;101979.72;4988037;28;20089;-72
2021/12/04 06:34:09;;;;;;;7.78;5.40;;;;;;;11.26;78.81;101978.81;5014501;28;20034;-77
2021/12/04 06:36:37;;;;;;;12.75;5.70;;;;;;;11.30;79.00;101984.13;5002180;28;20077;-77
2021/12/04 06:39:04;;;;;;;11.25;6.13;;;;;;;11.27;78.71;101989.44;4989555;28;20059;-77
2021/12/04 06:41:30;;;;;;;8.50;4.72;;;;;;;11.31;78.91;101987.66;5005465;28;20027;-77
2021/12/04 06:43:56;;;;;;;9.75;5.43;;;;;;;11.31;77.97;101996.50;5009240;28;20035;-77
2021/12/04 06:46:23;;;;;;;13.73;5.75;;;;;;;11.32;78.65;101997.38;4982790;28;20059;-76
2021/12/04 06:49:02;;;;;;;11.90;5.55;;;;;;;11.31;78.99;102001.78;4986125;28;20300;-77
2021/12/04 06:51:37;;;;;;;11.73;5.30;;;;;;;11.29;78.98;101998.22;5006033;28;20034;-77
2021/12/04 06:56:35;;;;;;;10.25;4.85;;;;;;;11.35;78.86;102007.94;5000755;28;20042;-77
2021/12/04 06:59:10;;;;;;;7.75;5.18;;;;;;;11.34;79.18;102004.44;4986763;28;20118;-77
2021/12/04 07:01:38;;;;;;;8.93;5.32;;;;;;;11.32;78.80;102000.00;4986442;28;20381;-77
2021/12/04 07:04:04;;;;;;;11.13;5.20;;;;;;;11.32;78.90;102000.00;4990173;28;20037;-76
2021/12/04 07:06:31;;;;;;;12.00;5.05;;;;;;;11.31;78.41;102001.78;4981769;28;20069;-73
2021/12/04 07:08:58;;;;;;;10.02;5.00;;;;;;;11.30;78.98;101997.38;4979945;28;20080;-75
2021/12/04 07:11:26;;;;;;;11.82;5.55;;;;;;;11.35;79.10;102000.00;4979035;28;20057;-72
2021/12/04 07:13:52;;;;;;;10.48;6.22;;;;;;;11.35;78.61;102002.66;4978909;28;20026;-71
2021/12/04 07:16:21;;;;;;;13.35;7.13;;;;;;;11.32;79.08;101994.72;5005151;28;20346;-70
2021/12/04 07:18:47;;;;;;;12.82;6.60;;;;;;;11.32;78.61;102003.53;4987297;28;20035;-74
2021/12/04 07:21:14;;;;;;;13.05;6.35;;;;;;;11.35;78.97;102002.66;4989470;28;20026;-73
2021/12/04 07:23:40;;;;;;;7.32;5.63;;;;;;;11.36;78.88;102001.78;4994848;28;20030;-73
2021/12/04 07:26:08;;;;;;;10.35;6.60;;;;;;;11.32;78.63;102002.66;4985434;28;20050;-74
2021/12/04 07:28:35;;;;;;;12.85;7.00;;;;;;;11.34;79.04;102007.06;4994070;28;20038;-72
2021/12/04 07:31:02;;;;;;;13.55;7.93;;;;;;;11.31;78.71;102007.06;4978067;28;20113;-73
2021/12/04 07:33:28;;;;;;;13.15;7.47;;;;;;;11.33;79.19;102013.25;4977806;28;20070;-73
2021/12/04 07:35:57;;;;;;;13.85;7.00;;;;;;;11.34;78.80;102011.50;4977241;28;20034;-75
2021/12/04 07:38:23;;;;;;;12.57;7.32;;;;;;;11.34;79.37;102015.00;4988051;28;20039;-75
2021/12/04 07:40:50;;;;;;;10.57;6.43;;;;;;;11.37;78.68;102027.38;4977175;28;20388;-75
2021/12/04 07:43:16;;;;;;;10.77;6.75;;;;;;;11.33;78.94;102020.31;4975852;28;20062;-70
2021/12/04 07:45:43;;;;;;;11.75;7.03;;;;;;;11.31;78.74;102020.31;4982399;28;20128;-74
2021/12/04 07:48:09;;;;;;;12.93;7.20;;;;;;;11.33;78.41;102020.31;4958257;29;20519;-73
2021/12/04 07:50:36;;;;;;;10.70;7.30;;;;;;;11.35;78.83;102022.09;4972983;28;20034;-74
2021/12/04 07:53:03;;;;;;;10.20;7.50;;;;;;;11.34;78.82;102022.09;4984862;28;20030;-74
2021/12/04 07:55:29;;;;;;;12.05;7.35;;;;;;;11.31;79.28;102025.59;4981918;28;20400;-74
2021/12/04 07:57:56;;;;;;;12.30;8.13;;;;;;;11.28;79.08;102020.25;4972472;28;20062;-74
2021/12/04 08:00:23;;;;;;;13.93;7.90;;;;;;;11.27;79.28;102022.91;4974488;28;20081;-74
2021/12/04 08:02:50;;;;;;;11.13;7.78;;;;;;;11.29;79.16;102019.41;4964096;28;20058;-77
2021/12/04 08:05:17;;;;;;;12.68;8.30;;;;;;;11.31;78.74;102022.94;4983915;28;20189;-78
2021/12/04 08:07:44;;;;;;;14.35;9.02;;;;;;;11.30;78.95;102028.22;4975929;28;20473;-77
2021/12/04 08:10:15;;;;;;;13.25;8.68;;;;;;;11.31;79.12;102022.03;4987269;28;20035;-76
2021/12/04 08:12:42;;;;;;;14.57;8.50;;;;;;;11.30;78.79;102023.81;4977620;28;20094;-77
2021/12/04 08:15:10;;;;;;;14.27;8.63;;;;;;;11.34;78.92;102028.25;4981951;28;20034;-77
2021/12/04 08:17:38;;;;;;;18.35;8.85;;;;;;;11.34;78.44;102030.00;4984224;28;20449;-76
2021/12/04 08:20:05;;;;;;;13.02;7.97;;;;;;;11.35;78.31;102037.06;4974758;28;20027;-77
2021/12/04 08:22:34;;;;;;;12.18;7.22;;;;;;;11.32;78.88;102031.75;4974869;28;20041;-77
2021/12/04 08:25:00;;;;;;;14.23;7.70;;;;;;;11.32;78.85;102034.41;4973272;28;20113;-77
2021/12/04 08:27:26;;;;;;;;;;;;;;;11.31;78.92;102035.28;4994211;28;20452;-77
2021/12/04 08:29:52;;;;;;;15.50;7.20;;;;;;;11.31;78.89;102043.22;4980741;28;19910;-77
2021/12/04 08:32:22;;;;;;;11.50;7.60;;;;;;;11.28;79.11;102041.44;4979650;28;20019;-77
2021/12/04 08:34:49;;;;;;;11.63;6.95;;;;;;;11.28;79.15;102043.19;4974662;28;20034;-75
2021/12/04 08:37:15;;;;;;;12.48;7.97;;;;;;;11.29;78.78;102037.03;4977827;28;20121;-74
2021/12/04 08:39:42;;;;;;;15.13;6.80;;;;;;;11.28;78.53;102037.91;4977585;28;20062;-75
2021/12/04 08:42:08;;;;;;;12.48;7.07;;;;;;;11.29;79.08;102031.75;4975354;28;20033;-73
2021/12/04 08:44:36;;;;;;;11.88;7.82;;;;;;;11.30;78.63;102038.78;4976688;28;20089;-73
2021/12/04 08:47:02;;;;;;;12.18;7.15;;;;;;;11.30;78.51;102034.41;4980928;28;20023;-73
2021/12/04 08:49:31;;;;;;;11.80;7.10;;;;;;;11.30;78.95;102041.44;4991263;28;20058;-73
2021/12/04 08:51:58;;;;;;;14.70;8.05;;;;;;;11.27;78.62;102042.34;4979862;28;20603;-73
2021/12/04 08:54:24;;;;;;;;;;;;;;;11.28;79.31;102046.72;4975989;28;20037;-73
2021/12/04 08:56:50;;;;;;;12.57;7.25;;;;;;;11.21;79.42;102042.28;4979691;28;19965;-73
2021/12/04 08:59:16;;;;;;;15.25;8.15;;;;;;;11.20;78.55;102047.56;4989178;28;20059;-73
2021/12/04 09:01:44;;;;;;;12.70;7.03;;;;;;;11.19;78.97;102057.25;4981898;28;20057;-73
2021/12/04 09:04:19;;;;;;;11.93;6.80;;;;;;;11.14;79.09;102048.41;4981407;28;20042;-74
2021/12/04 09:06:45;;;;;;;15.52;6.65;;;;;;;11.16;79.17;102055.47;4975917;28;20065;-74
2021/12/04 09:09:15;;;;;;;15.85;7.93;;;;;;;11.15;79.52;102050.19;4957332;29;20027;-74
2021/12/04 09:11:47;;;;;;;10.38;7.03;;;;;;;11.17;79.00;102054.59;4976775;28;20165;-73
2021/12/04 09:14:15;;;;;;;10.80;6.70;;;;;;;11.21;78.86;102058.16;4988062;28;20023;-74
2021/12/04 09:16:42;;;;;;;13.48;6.63;;;;;;;11.17;78.78;102048.44;4975411;28;20109;-74
2021/12/04 09:19:09;;;;;;;12.07;6.60;;;;;;;11.19;78.83;102049.31;4974446;28;20097;-74
2021/12/04 09:21:37;;;;;;;12.15;7.97;;;;;;;11.17;78.33;102043.16;4974333;28;20027;-74
2021/12/04 09:24:12;;;;;;;13.40;7.05;;;;;;;11.16;78.74;102049.31;4974934;28;20050;-74
2021/12/04 09:40:33;;;;;;;16.75;7.97;;;;;;;11.17;78.76;102065.19;4976032;28;20026;-74
2021/12/04 10:21:35;;;;;;;12.60;7.03;;;;;;;11.04;78.17;102055.41;4983063;28;20065;-74
2021/12/04 10:32:35;;;;;;;8.95;6.10;;;;;;;11.04;78.10;102057.19;4976756;28;20092;-74
2021/12/04 10:35:10;;;;;;;9.00;5.70;;;;;;;11.04;78.99;102059.81;4974795;28;20109;-74
2021/12/04 10:37:53;;;;;;;12.93;6.20;;;;;;;11.04;78.52;102066.00;4978479;28;20488;-74
2021/12/04 10:40:22;;;;;;;11.18;5.85;;;;;;;11.03;78.23;102061.56;4976916;28;20130;-74
2021/12/04 10:42:56;;;;;;;11.45;6.70;;;;;;;11.04;78.00;102057.19;4976915;28;20037;-74
2021/12/04 10:45:32;;;;;;;9.93;6.50;;;;;;;11.00;78.23;102051.84;4977518;28;20050;-75
2021/12/04 10:48:00;;;;;;;12.45;7.18;;;;;;;10.97;78.90;102051.84;4982433;28;20034;-74
2021/12/04 10:52:59;;;;;;;10.05;7.40;;;;;;;11.01;78.69;102058.03;4960107;28;20521;-75
2021/12/04 11:03:51;;;;;;;15.07;7.47;;;;;;;10.99;78.63;102042.19;4980929;28;20030;-73
2021/12/04 11:07:15;;;;;;;11.73;6.97;;;;;;;10.94;78.89;102038.63;4973164;28;20034;-73
2021/12/04 11:43:13;;;;;;;13.15;9.73;;;;;;;10.88;78.72;102035.91;4976924;28;20038;-76
2021/12/04 11:45:46;;;;;;;16.55;8.95;;;;;;;10.89;79.00;102034.16;4957926;28;20105;-76
2021/12/04 11:48:13;;;;;;;18.13;9.80;;;;;;;10.92;78.47;102036.84;4975121;28;20026;-75
2021/12/04 11:50:42;;;;;;;14.85;9.52;;;;;;;10.89;79.02;102031.50;4980165;28;20038;-76
2021/12/04 11:53:19;;;;;;;15.02;9.57;;;;;;;10.91;79.19;102032.41;4976420;28;20045;-76
2021/12/04 11:55:48;;;;;;;19.83;10.30;;;;;;;10.92;79.01;102034.19;4957998;28;20031;-76
2021/12/04 11:58:31;;;;;;;15.05;9.45;;;;;;;10.91;79.71;102032.41;4971544;28;20032;-77
2021/12/04 12:01:19;;;;;;;14.88;9.43;;;;;;;10.94;79.58;102035.06;4970599;28;20023;-77
2021/12/04 12:03:56;;;;;;;15.93;10.05;;;;;;;10.94;79.45;102035.97;4984669;28;20460;-78
2021/12/04 12:06:39;;;;;;;13.23;9.73;;;;;;;10.95;79.83;102035.06;4974407;28;20034;-78
2021/12/04 12:09:14;;;;;;;17.17;10.63;;;;;;;10.95;79.46;102042.13;4966076;28;20078;-78
2021/12/04 12:11:53;;;;;;;19.52;11.55;;;;;;;10.92;80.09;102040.34;4965449;28;20023;-76
2021/12/04 12:14:41;;;;;;;18.80;10.00;;;;;;;10.91;79.85;102032.41;4975774;28;20149;-77
2021/12/04 12:17:09;;;;;;;15.88;10.93;;;;;;;10.92;80.04;102039.47;4981390;28;20018;-77
2021/12/04 12:19:41;;;;;;;16.90;11.13;;;;;;;10.91;79.88;102043.00;4978529;28;20057;-77
2021/12/04 12:22:25;;;;;;;15.70;11.27;;;;;;;10.93;80.07;102055.34;4976072;28;20349;-76
2021/12/04 12:33:03;;;;;;;18.60;12.63;;;;;;;10.92;79.91;102053.56;4971439;28;20413;-77
2021/12/04 12:38:51;;;;;;;16.95;11.90;;;;;;;10.93;79.52;102043.88;4967900;28;20037;-74
2021/12/04 12:41:23;;;;;;;16.38;12.02;;;;;;;10.90;79.90;102041.22;4957044;28;20365;-72
2021/12/04 12:44:08;;;;;;;18.42;13.20;;;;;;;10.89;79.95;102040.34;4969393;28;20125;-76
2021/12/04 12:46:53;;;;;;;19.33;13.05;;;;;;;10.90;79.67;102028.91;4974561;28;20038;-76
2021/12/04 12:49:21;;;;;;;19.88;13.20;;;;;;;10.94;79.66;102035.97;4973988;28;20106;-76
2021/12/04 12:51:58;;;;;;;17.35;11.80;;;;;;;10.91;80.29;102040.34;4975490;28;20037;-77
2021/12/04 12:54:30;;;;;;;16.67;13.27;;;;;;;10.90;79.92;102042.13;4975620;28;20104;-76
2021/12/04 12:56:59;;;;;;;15.57;11.00;;;;;;;10.95;79.75;102043.00;4971143;28;20030;-77
2021/12/04 12:59:38;;;;;;;17.08;11.95;;;;;;;10.97;80.18;102045.69;4975858;28;20089;-77
2021/12/04 13:13:36;;;;;;;18.58;13.68;;;;;;;10.94;80.56;102054.47;4975560;28;20116;-77
2021/12/04 13:16:17;;;;;;;21.85;14.82;;;;;;;10.95;80.42;102058.00;4974731;28;20349;-76
2021/12/04 13:18:53;;;;;;;25.67;15.75;;;;;;;10.95;80.09;102064.16;4973556;28;20164;-76
2021/12/04 13:21:19;;;;;;;20.40;15.63;;;;;;;10.96;80.35;102065.94;4978751;28;20085;-77
2021/12/04 13:23:52;;;;;;;23.90;16.30;;;;;;;10.95;80.77;102080.03;4972186;28;20030;-73
2021/12/04 13:26:19;;;;;;;23.63;16.15;;;;;;;10.95;80.34;102077.38;4995857;28;20033;-74
2021/12/04 13:28:50;;;;;;;24.00;16.38;;;;;;;10.89;80.62;102074.72;4973159;28;20033;-74
2021/12/04 13:31:18;;;;;;;28.58;19.40;;;;;;;10.90;79.92;102080.88;4995123;28;20023;-73
2021/12/04 13:33:50;;;;;;;24.27;18.02;;;;;;;10.94;79.98;102085.31;4972381;28;20065;-80
2021/12/04 13:36:23;;;;;;;22.52;17.55;;;;;;;10.95;80.17;102082.66;4976433;28;20022;-81
2021/12/04 13:39:11;;;;;;;26.15;18.75;;;;;;;10.96;80.41;102091.50;4991985;28;20042;-80
2021/12/04 13:41:40;;;;;;;28.48;18.98;;;;;;;10.94;80.76;102091.50;4976288;28;20489;-81
2021/12/04 13:44:08;;;;;;;24.50;18.65;;;;;;;10.89;79.60;102089.66;4974985;28;20042;-78
2021/12/04 13:46:44;;;;;;;26.90;19.73;;;;;;;10.94;79.35;102095.88;4977945;28;20034;-79
2021/12/04 13:49:12;;;;;;;25.23;16.67;;;;;;;10.96;79.01;102107.38;4985498;28;20014;-82
2021/12/04 13:51:39;;;;;;;22.33;18.75;;;;;;;10.96;79.00;102113.53;4987750;28;20031;-82
2021/12/04 13:54:07;;;;;;;26.42;17.45;;;;;;;10.94;78.36;102110.00;4979143;28;20531;-83
2021/12/04 13:56:34;;;;;;;24.27;17.77;;;;;;;10.93;78.62;102112.59;4978410;28;20035;-83
2021/12/04 13:59:19;;;;;;;20.70;16.98;;;;;;;10.93;78.66;102113.50;4978305;28;20338;-82
2021/12/04 14:01:46;;;;;;;22.45;16.45;;;;;;;10.98;78.51;102124.09;4977713;28;20449;-82
2021/12/04 14:04:16;;;;;;;24.75;16.05;;;;;;;10.95;78.51;102117.03;4977012;28;20023;-74
2021/12/04 14:06:52;;;;;;;24.63;16.48;;;;;;;10.97;78.77;102114.44;4977315;28;20039;-74
2021/12/04 14:09:20;;;;;;;23.98;15.98;;;;;;;10.99;78.23;102118.84;4978050;28;20309;-74
2021/12/04 14:11:46;;;;;;;27.95;16.13;;;;;;;11.00;78.61;102114.44;4977366;28;20054;-75
2021/12/04 14:14:19;;;;;;;27.02;15.85;;;;;;;10.94;78.13;102125.88;4978479;28;20023;-76
2021/12/04 14:16:50;;;;;;;20.42;15.20;;;;;;;10.96;78.69;102128.50;4978599;28;20113;-77
2021/12/04 14:19:23;;;;;;;23.63;15.52;;;;;;;10.94;79.16;102132.88;4978441;28;20472;-76
2021/12/04 14:22:08;;;;;;;24.00;15.13;;;;;;;10.96;78.46;102139.97;4978166;28;20049;-76
2021/12/04 14:24:45;;;;;;;21.08;14.48;;;;;;;10.96;79.01;102137.31;4976653;28;20038;-75
2021/12/04 14:27:17;;;;;;;20.33;14.30;;;;;;;10.98;79.29;102134.69;4976536;28;20030;-75
2021/12/04 14:29:47;;;;;;;22.30;14.70;;;;;;;10.99;78.87;102134.72;4978031;28;20507;-75
2021/12/04 14:32:16;;;;;;;22.10;14.75;;;;;;;10.99;79.15;102137.38;4980244;28;20069;-75